createdAt,value
2022-07-25T00:01:08.713Z,15.73
2022-07-25T00:03:40.555Z,16.60
2022-07-25T00:06:17.808Z,17.73
2022-07-25T00:08:49.423Z,17.52
2022-07-25T00:11:19.388Z,18.70
2022-07-25T00:13:49.851Z,18.98
2022-07-25T00:16:20.397Z,14.90
2022-07-25T00:18:50.560Z,17.48
2022-07-25T00:21:20.526Z,18.85
2022-07-25T00:23:51.942Z,12.93
2022-07-25T00:26:22.009Z,13.43
2022-07-25T00:28:52.248Z,16.00
2022-07-25T00:31:22.311Z,18.50
2022-07-25T00:33:52.301Z,19.98
2022-07-25T00:36:22.530Z,15.95
2022-07-25T00:38:53.926Z,15.68
2022-07-25T00:41:24.050Z,14.80
2022-07-25T00:43:54.129Z,15.23
2022-07-25T00:46:24.532Z,16.88
2022-07-25T00:48:54.509Z,16.00
2022-07-25T00:51:24.639Z,16.05
2022-07-25T00:53:57.040Z,15.35
2022-07-25T00:56:27.623Z,19.83
2022-07-25T00:58:57.762Z,19.02
2022-07-25T01:01:27.875Z,16.90
2022-07-25T01:03:58.114Z,17.70
2022-07-25T01:06:28.606Z,17.73
2022-07-25T01:09:00.307Z,16.85
2022-07-25T01:11:30.271Z,26.35
2022-07-25T01:14:00.776Z,22.48
2022-07-25T01:16:31.196Z,15.27
2022-07-25T01:19:02.334Z,22.25
2022-07-25T01:21:33.693Z,19.70
2022-07-25T01:24:03.983Z,23.52
2022-07-25T01:26:34.345Z,30.67
2022-07-25T01:29:04.470Z,22.00
2022-07-25T01:31:34.487Z,24.33
2022-07-25T01:34:04.779Z,28.13
2022-07-25T01:36:36.636Z,20.98
2022-07-25T01:39:06.698Z,16.77
2022-07-25T01:41:36.685Z,19.15
2022-07-25T01:44:07.163Z,21.58
2022-07-25T01:46:38.514Z,17.80
2022-07-25T01:49:08.625Z,22.23
2022-07-25T01:51:40.005Z,19.95
2022-07-25T01:54:10.486Z,15.63
2022-07-25T01:56:47.089Z,25.00
2022-07-25T01:59:18.458Z,23.20
2022-07-25T02:01:48.570Z,15.70
2022-07-25T02:04:18.593Z,28.33
2022-07-25T02:06:50.122Z,24.00
2022-07-25T02:09:19.964Z,20.73
2022-07-25T02:11:50.593Z,28.08
2022-07-25T02:14:20.888Z,30.15
2022-07-25T02:16:51.379Z,25.80
2022-07-25T02:19:21.331Z,33.42
2022-07-25T02:21:52.834Z,41.13
2022-07-25T02:24:22.822Z,37.72
2022-07-25T02:26:53.013Z,29.35
2022-07-25T02:29:23.079Z,29.70
2022-07-25T02:31:53.197Z,29.23
2022-07-25T02:34:23.163Z,29.15
2022-07-25T02:36:54.530Z,31.55
2022-07-25T02:39:25.438Z,22.60
2022-07-25T02:41:55.387Z,22.27
2022-07-25T02:44:25.563Z,22.10
2022-07-25T02:46:55.497Z,23.02
2022-07-25T02:49:25.468Z,21.88
2022-07-25T02:51:57.676Z,22.98
2022-07-25T02:54:27.803Z,19.40
2022-07-25T02:56:57.802Z,25.58
2022-07-25T02:59:32.386Z,18.83
2022-07-25T03:02:02.430Z,22.02
2022-07-25T03:04:32.422Z,23.75
2022-07-25T03:07:03.840Z,20.90
2022-07-25T03:09:33.780Z,17.20
2022-07-25T03:12:04.694Z,25.73
2022-07-25T03:14:35.181Z,24.63
2022-07-25T03:17:05.410Z,20.13
2022-07-25T03:19:35.518Z,27.08
2022-07-25T03:22:06.813Z,22.35
2022-07-25T03:24:36.816Z,22.55
2022-07-25T03:27:06.955Z,25.67
2022-07-25T03:29:37.035Z,26.40
2022-07-25T03:32:08.219Z,22.08
2022-07-25T03:34:38.765Z,22.17
2022-07-25T03:37:10.077Z,19.55
2022-07-25T03:39:40.954Z,23.00
2022-07-25T03:42:11.815Z,20.45
2022-07-25T03:44:41.707Z,22.63
2022-07-25T03:47:11.672Z,18.65
2022-07-25T03:49:50.672Z,18.83
2022-07-25T03:52:21.959Z,20.67
2022-07-25T03:54:51.875Z,20.73
2022-07-25T03:57:21.858Z,22.00
2022-07-25T03:59:51.713Z,24.10
2022-07-25T04:02:21.666Z,21.20
2022-07-25T04:04:51.753Z,21.77
2022-07-25T04:07:23.244Z,23.85
2022-07-25T04:09:53.180Z,25.08
2022-07-25T04:12:23.911Z,24.50
2022-07-25T04:14:54.275Z,25.17
2022-07-25T04:17:25.296Z,23.13
2022-07-25T04:19:55.772Z,21.77
2022-07-25T04:22:28.097Z,24.77
2022-07-25T04:24:57.992Z,20.77
2022-07-25T04:27:28.076Z,30.95
2022-07-25T04:29:58.977Z,21.90
2022-07-25T04:32:29.055Z,21.58
2022-07-25T04:34:58.925Z,22.67
2022-07-25T04:37:30.611Z,29.08
2022-07-25T04:40:00.441Z,31.77
2022-07-25T04:42:30.582Z,26.42
2022-07-25T04:45:00.524Z,26.58
2022-07-25T04:47:30.578Z,23.65
2022-07-25T04:50:01.286Z,25.80
2022-07-25T04:52:32.601Z,24.42
2022-07-25T04:55:04.280Z,37.13
2022-07-25T04:57:34.498Z,23.33
2022-07-25T05:00:05.350Z,26.25
2022-07-25T05:02:36.346Z,32.03
2022-07-25T05:05:07.167Z,28.67
2022-07-25T05:07:38.711Z,29.52
2022-07-25T05:10:09.291Z,21.65
2022-07-25T05:12:39.686Z,24.77
2022-07-25T05:15:11.267Z,20.48
2022-07-25T05:17:41.308Z,21.75
2022-07-25T05:20:13.779Z,23.77
2022-07-25T05:22:45.225Z,23.17
2022-07-25T05:25:15.216Z,24.42
2022-07-25T05:27:45.562Z,20.23
2022-07-25T05:30:16.368Z,19.00
2022-07-25T05:32:46.303Z,19.98
2022-07-25T05:35:17.430Z,18.10
2022-07-25T05:37:49.822Z,18.50
2022-07-25T05:40:19.847Z,17.33
2022-07-25T05:42:49.787Z,17.67
2022-07-25T05:45:19.735Z,18.25
2022-07-25T05:47:49.577Z,21.77
2022-07-25T05:50:19.656Z,19.80
2022-07-25T05:52:50.963Z,20.63
2022-07-25T05:55:21.106Z,15.90
2022-07-25T05:57:51.090Z,13.98
2022-07-25T06:00:21.179Z,14.15
2022-07-25T06:02:51.191Z,13.98
2022-07-25T06:05:22.451Z,14.63
2022-07-25T06:07:53.905Z,15.65
2022-07-25T06:10:24.063Z,15.75
2022-07-25T06:12:54.283Z,15.70
2022-07-25T06:15:26.601Z,16.67
2022-07-25T06:17:57.673Z,15.82
2022-07-25T06:20:29.664Z,15.70
2022-07-25T06:23:03.904Z,15.75
2022-07-25T06:25:34.411Z,16.20
2022-07-25T06:28:04.873Z,19.80
2022-07-25T06:30:34.883Z,19.73
2022-07-25T06:33:04.938Z,17.25
2022-07-25T06:35:36.801Z,18.70
2022-07-25T06:38:10.337Z,19.13
2022-07-25T06:43:09.887Z,18.75
2022-07-25T06:45:39.831Z,21.00
2022-07-25T06:48:11.088Z,18.20
2022-07-25T06:50:41.291Z,31.42
2022-07-25T06:53:12.680Z,22.05
2022-07-25T06:55:42.895Z,18.23
2022-07-25T06:58:13.042Z,19.75
2022-07-25T07:00:43.230Z,18.83
2022-07-25T07:03:13.532Z,17.17
2022-07-25T07:05:43.422Z,18.60
2022-07-25T07:08:15.264Z,21.38
2022-07-25T07:10:45.191Z,20.38
2022-07-25T07:13:23.874Z,25.50
2022-07-25T07:15:55.905Z,23.60
2022-07-25T07:18:25.988Z,21.73
2022-07-25T07:20:55.857Z,19.25
2022-07-25T07:23:27.390Z,23.30
2022-07-25T07:25:59.131Z,21.65
2022-07-25T07:28:29.308Z,21.25
2022-07-25T07:31:15.836Z,21.25
2022-07-25T07:33:47.000Z,23.25
2022-07-25T07:36:16.919Z,23.63
2022-07-25T07:38:50.178Z,18.63
2022-07-25T07:41:20.490Z,21.67
2022-07-25T07:43:50.614Z,20.95
2022-07-25T07:46:20.670Z,20.65
2022-07-25T07:48:50.669Z,23.52
2022-07-25T07:51:21.140Z,18.67
2022-07-25T07:54:09.875Z,19.95
2022-07-25T07:56:39.796Z,18.83
2022-07-25T07:59:10.547Z,23.00
2022-07-25T08:01:40.828Z,18.27
2022-07-25T08:04:11.454Z,19.67
2022-07-25T08:06:43.247Z,20.80
2022-07-25T08:09:14.719Z,20.25
2022-07-25T08:11:45.387Z,20.25
2022-07-25T08:14:15.905Z,29.98
2022-07-25T08:16:45.924Z,21.92
2022-07-25T08:19:16.037Z,24.35
2022-07-25T08:21:47.144Z,29.35
2022-07-25T08:24:18.873Z,23.90
2022-07-25T08:26:48.807Z,30.23
2022-07-25T08:29:20.668Z,29.38
2022-07-25T08:31:52.911Z,20.27
2022-07-25T08:34:22.937Z,23.40
2022-07-25T08:36:52.789Z,20.65
2022-07-25T08:39:24.267Z,19.58
2022-07-25T08:41:54.401Z,21.88
2022-07-25T08:44:31.068Z,19.77
2022-07-25T08:47:01.965Z,20.65
2022-07-25T08:49:32.064Z,20.35
2022-07-25T08:52:03.837Z,33.92
2022-07-25T08:54:35.200Z,35.90
2022-07-25T08:57:05.544Z,23.80
2022-07-25T08:59:35.513Z,22.05
2022-07-25T09:02:08.956Z,23.23
2022-07-25T09:07:08.931Z,22.42
2022-07-25T09:09:40.578Z,22.45
2022-07-25T09:12:11.074Z,21.77
2022-07-25T09:14:45.460Z,18.15
2022-07-25T09:17:21.938Z,22.83
2022-07-25T09:19:54.715Z,19.35
2022-07-25T09:22:24.890Z,18.27
2022-07-25T09:24:56.457Z,19.08
2022-07-25T09:27:26.638Z,18.38
2022-07-25T09:29:57.083Z,18.08
2022-07-25T09:32:26.999Z,18.75
2022-07-25T09:34:56.893Z,19.83
2022-07-25T09:37:27.964Z,18.90
2022-07-25T09:39:59.538Z,19.13
2022-07-25T09:42:32.342Z,22.05
2022-07-25T09:45:11.502Z,18.90
2022-07-25T09:47:52.678Z,18.90
2022-07-25T09:50:24.368Z,21.10
2022-07-25T09:52:56.664Z,19.35
2022-07-25T09:55:28.106Z,19.10
2022-07-25T09:57:58.436Z,18.00
2022-07-25T10:00:30.328Z,17.40
2022-07-25T10:03:13.057Z,19.40
2022-07-25T10:05:52.308Z,24.27
2022-07-25T10:08:23.571Z,18.58
2022-07-25T10:10:55.299Z,18.33
2022-07-25T10:13:35.292Z,18.77
2022-07-25T10:16:16.978Z,18.13
2022-07-25T10:18:52.499Z,19.58
2022-07-25T10:21:27.258Z,19.40
2022-07-25T10:24:04.135Z,19.45
2022-07-25T10:26:39.850Z,19.25
2022-07-25T10:29:11.824Z,20.17
2022-07-25T10:31:50.467Z,20.20
2022-07-25T10:34:31.880Z,19.90
2022-07-25T10:37:11.481Z,18.40
2022-07-25T10:39:42.779Z,19.45
2022-07-25T10:42:16.816Z,22.58
2022-07-25T10:44:49.187Z,19.02
2022-07-25T10:47:19.398Z,20.33
2022-07-25T10:50:13.900Z,20.08
2022-07-25T10:52:43.476Z,18.90
2022-07-25T10:55:23.863Z,19.48
2022-07-25T10:58:17.185Z,18.90
2022-07-25T11:00:47.989Z,18.85
2022-07-25T11:03:18.710Z,23.65
2022-07-25T11:05:49.247Z,18.90
2022-07-25T11:08:22.181Z,19.42
2022-07-25T11:10:53.864Z,19.75
2022-07-25T11:13:26.066Z,20.92
2022-07-25T11:15:58.966Z,18.88
2022-07-25T11:18:36.592Z,20.23
2022-07-25T11:21:08.567Z,21.10
2022-07-25T11:23:38.553Z,18.23
2022-07-25T11:26:10.361Z,19.05
2022-07-25T11:28:45.826Z,18.50
2022-07-25T11:31:17.219Z,18.90
2022-07-25T11:33:50.525Z,18.40
2022-07-25T11:36:21.389Z,18.40
2022-07-25T11:38:51.745Z,18.17
2022-07-25T11:41:29.799Z,17.67
2022-07-25T11:44:01.230Z,17.42
2022-07-25T11:46:31.434Z,17.92
2022-07-25T11:49:08.671Z,17.85
2022-07-25T11:51:39.957Z,19.77
2022-07-25T11:54:11.810Z,17.60
2022-07-25T11:56:43.440Z,17.60
2022-07-25T11:59:15.290Z,19.88
2022-07-25T12:01:45.491Z,17.50
2022-07-25T12:04:18.295Z,18.80
2022-07-25T12:06:50.041Z,21.58
2022-07-25T12:09:22.297Z,18.95
2022-07-25T12:12:03.683Z,18.70
2022-07-25T12:14:44.909Z,18.33
2022-07-25T12:17:15.072Z,18.45
2022-07-25T12:19:47.151Z,16.95
2022-07-25T12:22:17.214Z,19.02
2022-07-25T12:24:47.163Z,17.30
2022-07-25T12:27:17.080Z,17.67
2022-07-25T12:29:49.333Z,20.00
2022-07-25T12:32:19.250Z,23.23
2022-07-25T12:34:49.295Z,21.02
2022-07-25T12:37:21.733Z,18.75
2022-07-25T12:39:51.787Z,18.40
2022-07-25T12:42:21.937Z,18.65
2022-07-25T12:44:53.340Z,18.23
2022-07-25T12:47:23.367Z,17.98
2022-07-25T12:49:53.281Z,17.60
2022-07-25T12:52:23.589Z,19.00
2022-07-25T12:54:53.871Z,17.00
2022-07-25T12:57:24.681Z,18.67
2022-07-25T12:59:56.533Z,18.48
2022-07-25T13:02:26.822Z,17.90
2022-07-25T13:04:56.949Z,17.50
2022-07-25T13:07:27.075Z,17.42
2022-07-25T13:09:57.391Z,15.55
2022-07-25T13:12:28.070Z,18.63
2022-07-25T13:14:59.782Z,18.13
2022-07-25T13:17:29.830Z,18.40
2022-07-25T13:20:00.188Z,17.30
2022-07-25T13:22:30.278Z,18.10
2022-07-25T13:25:00.295Z,19.70
2022-07-25T13:27:30.211Z,17.70
2022-07-25T13:30:01.557Z,17.60
2022-07-25T13:32:31.884Z,15.27
2022-07-25T13:35:02.391Z,18.40
2022-07-25T13:37:33.488Z,17.45
2022-07-25T13:40:03.577Z,17.77
2022-07-25T13:42:33.436Z,17.30
2022-07-25T13:45:04.992Z,15.85
2022-07-25T13:47:35.900Z,18.13
2022-07-25T13:50:06.610Z,15.50
2022-07-25T13:52:37.783Z,16.77
2022-07-25T13:55:10.437Z,16.63
2022-07-25T13:57:40.417Z,17.07
2022-07-25T14:00:13.548Z,16.80
2022-07-25T14:02:44.340Z,15.82
2022-07-25T14:05:14.784Z,18.00
2022-07-25T14:07:44.759Z,19.00
2022-07-25T14:10:14.812Z,25.58
2022-07-25T14:12:45.238Z,22.95
2022-07-25T14:15:17.707Z,18.75
2022-07-25T14:17:48.107Z,20.52
2022-07-25T14:20:18.065Z,14.32
2022-07-25T14:22:48.365Z,16.60
2022-07-25T14:25:18.330Z,16.17
2022-07-25T14:27:49.150Z,19.45
2022-07-25T14:30:20.523Z,13.60
2022-07-25T14:32:50.532Z,12.68
2022-07-25T14:35:20.921Z,17.48
2022-07-25T14:37:50.996Z,20.05
2022-07-25T14:40:20.974Z,28.20
2022-07-25T14:42:50.992Z,17.92
2022-07-25T14:45:23.064Z,14.75
2022-07-25T14:47:54.068Z,19.85
2022-07-25T14:50:24.456Z,14.98
2022-07-25T14:52:54.613Z,19.25
2022-07-25T14:55:25.965Z,23.80
2022-07-25T14:57:58.094Z,26.83
2022-07-25T15:00:30.006Z,16.90
2022-07-25T15:03:00.289Z,16.63
2022-07-25T15:05:30.810Z,17.92
2022-07-25T15:08:01.161Z,15.40
2022-07-25T15:10:31.285Z,12.40
2022-07-25T15:13:29.370Z,13.40
2022-07-25T15:15:54.673Z,14.05
2022-07-25T15:18:24.927Z,12.85
2022-07-25T15:21:05.386Z,12.32
2022-07-25T15:23:35.493Z,13.18
2022-07-25T15:26:06.368Z,13.15
2022-07-25T15:28:39.086Z,12.75
2022-07-25T15:31:10.702Z,22.02
2022-07-25T15:33:41.041Z,16.52
2022-07-25T15:36:11.540Z,11.70
2022-07-25T15:38:41.831Z,14.93
2022-07-25T15:41:12.312Z,19.20
2022-07-25T15:43:42.415Z,28.48
2022-07-25T15:46:18.005Z,32.30
2022-07-25T15:48:48.439Z,20.65
2022-07-25T15:51:19.001Z,26.75
2022-07-25T15:53:49.177Z,25.05
2022-07-25T15:56:19.488Z,16.48
2022-07-25T15:58:50.420Z,24.95
2022-07-25T16:01:22.273Z,16.25
2022-07-25T16:03:52.662Z,14.90
2022-07-25T16:06:23.714Z,14.93
2022-07-25T16:08:54.248Z,16.88
2022-07-25T16:11:24.417Z,16.88
2022-07-25T16:13:55.110Z,16.60
2022-07-25T16:16:27.249Z,20.27
2022-07-25T16:18:58.982Z,43.17
2022-07-25T16:21:29.145Z,48.88
2022-07-25T16:23:59.448Z,56.58
2022-07-25T16:26:29.561Z,56.05
2022-07-25T16:29:02.685Z,42.33
2022-07-25T16:31:35.066Z,34.65
2022-07-25T16:34:05.608Z,21.73
2022-07-25T16:36:36.882Z,27.08
2022-07-25T16:39:07.268Z,20.02
2022-07-25T16:41:37.797Z,16.75
2022-07-25T16:44:07.982Z,14.50
2022-07-25T16:46:39.654Z,19.85
2022-07-25T16:49:10.575Z,17.67
2022-07-25T16:51:41.088Z,18.35
2022-07-25T16:54:11.573Z,37.97
2022-07-25T16:56:42.455Z,27.38
2022-07-25T16:59:12.726Z,28.77
2022-07-25T17:01:46.658Z,26.85
2022-07-25T17:04:16.887Z,80.30
2022-07-25T17:06:49.350Z,31.77
2022-07-25T17:09:19.643Z,28.38
2022-07-25T17:11:50.306Z,16.98
2022-07-25T17:14:22.267Z,15.50
2022-07-25T17:19:25.788Z,14.18
2022-07-25T17:21:56.074Z,12.35
2022-07-25T17:24:26.476Z,13.48
2022-07-25T17:26:56.888Z,12.93
2022-07-25T17:29:27.685Z,17.63
2022-07-25T17:31:59.710Z,16.30
2022-07-25T17:34:30.066Z,14.68
2022-07-25T17:37:03.231Z,12.63
2022-07-25T17:39:34.470Z,12.43
2022-07-25T17:42:07.489Z,12.32
2022-07-25T17:44:37.727Z,11.35
2022-07-25T17:47:09.325Z,14.52
2022-07-25T17:49:39.594Z,12.30
2022-07-25T17:52:12.442Z,12.98
2022-07-25T17:54:42.538Z,14.07
2022-07-25T17:57:12.763Z,17.13
2022-07-25T17:59:42.988Z,16.13
2022-07-25T18:02:14.546Z,14.18
2022-07-25T18:04:45.142Z,13.43
2022-07-25T18:07:15.423Z,11.88
2022-07-25T18:09:45.475Z,15.73
2022-07-25T18:12:15.723Z,17.77
2022-07-25T18:14:49.222Z,16.77
2022-07-25T18:17:21.986Z,18.15
2022-07-25T18:19:52.170Z,31.30
2022-07-25T18:22:22.342Z,20.13
2022-07-25T18:24:52.560Z,14.57
2022-07-25T18:27:22.939Z,21.20
2022-07-25T18:29:53.081Z,16.85
2022-07-25T18:32:24.548Z,17.50
2022-07-25T18:34:54.732Z,14.32
2022-07-25T18:37:25.292Z,17.55
2022-07-25T18:39:55.498Z,19.13
2022-07-25T18:42:29.743Z,26.23
2022-07-25T18:45:00.387Z,28.30
2022-07-25T18:47:33.941Z,25.40
2022-07-25T18:52:36.472Z,13.98
2022-07-25T18:55:09.123Z,34.50
2022-07-25T18:57:39.548Z,14.38
2022-07-25T19:00:12.034Z,12.75
2022-07-25T19:02:43.607Z,18.05
2022-07-25T19:05:13.957Z,14.73
2022-07-25T19:07:45.041Z,15.13
2022-07-25T19:10:15.628Z,15.20
2022-07-25T19:12:46.571Z,14.07
2022-07-25T19:15:18.352Z,12.75
2022-07-25T19:17:49.965Z,12.40
2022-07-25T19:20:22.576Z,11.85
2022-07-25T19:22:53.040Z,12.68
2022-07-25T19:25:23.544Z,14.18
2022-07-25T19:27:54.167Z,11.20
2022-07-25T19:30:24.293Z,12.02
2022-07-25T19:32:55.824Z,11.32
2022-07-25T19:35:26.545Z,13.45
2022-07-25T19:37:56.807Z,10.23
2022-07-25T19:40:26.883Z,17.77
2022-07-25T19:42:57.001Z,12.57
2022-07-25T19:45:27.046Z,11.32
2022-07-25T19:47:58.589Z,10.82
2022-07-25T19:50:29.077Z,12.77
2022-07-25T19:52:59.191Z,10.77
2022-07-25T19:55:29.399Z,11.52
2022-07-25T19:57:59.583Z,10.43
2022-07-25T20:00:29.919Z,12.18
2022-07-25T20:03:01.637Z,13.57
2022-07-25T20:05:32.256Z,12.35
2022-07-25T20:08:02.713Z,11.13
2022-07-25T20:10:32.891Z,13.25
2022-07-25T20:13:03.804Z,12.32
2022-07-25T20:15:34.504Z,12.45
2022-07-25T20:18:06.034Z,11.15
2022-07-25T20:20:36.341Z,10.85
2022-07-25T20:23:06.387Z,11.52
2022-07-25T20:25:37.648Z,13.57
2022-07-25T20:28:08.163Z,12.93
2022-07-25T20:30:38.367Z,12.88
2022-07-25T20:33:10.167Z,12.02
2022-07-25T20:35:40.337Z,9.88
2022-07-25T20:38:11.013Z,10.88
2022-07-25T20:40:46.273Z,12.48
2022-07-25T20:43:16.646Z,12.88
2022-07-25T20:45:48.005Z,13.45
2022-07-25T20:48:19.618Z,12.85
2022-07-25T20:50:49.999Z,10.68
2022-07-25T20:53:20.383Z,13.65
2022-07-25T20:55:50.879Z,12.00
2022-07-25T20:58:21.444Z,14.02
2022-07-25T21:00:51.568Z,11.18
2022-07-25T21:03:25.758Z,11.48
2022-07-25T21:05:55.980Z,13.90
2022-07-25T21:08:26.213Z,14.73
2022-07-25T21:10:56.347Z,12.80
2022-07-25T21:13:26.922Z,10.73
2022-07-25T21:16:01.376Z,10.98
2022-07-25T21:18:32.881Z,11.43
2022-07-25T21:21:03.248Z,14.00
2022-07-25T21:23:33.558Z,11.25
2022-07-25T21:26:04.756Z,12.02
2022-07-25T21:28:35.109Z,12.43
2022-07-25T21:31:05.181Z,11.10
2022-07-25T21:33:36.638Z,11.35
2022-07-25T21:36:07.580Z,12.07
2022-07-25T21:38:38.597Z,14.50
2022-07-25T21:41:09.495Z,11.18
2022-07-25T21:43:39.586Z,11.68
2022-07-25T21:46:09.710Z,12.80
2022-07-25T21:48:58.493Z,10.57
2022-07-25T21:51:38.186Z,12.18
2022-07-25T21:56:43.257Z,12.63
2022-07-25T21:59:13.641Z,13.45
2022-07-25T22:01:44.379Z,11.13
2022-07-25T22:04:15.918Z,16.27
2022-07-25T22:06:45.818Z,12.25
2022-07-25T22:09:15.915Z,12.30
2022-07-25T22:11:46.929Z,12.52
2022-07-25T22:14:17.767Z,12.00
2022-07-25T22:16:47.996Z,11.32
2022-07-25T22:19:22.329Z,12.80
2022-07-25T22:21:52.935Z,12.10
2022-07-25T22:24:22.859Z,13.13
2022-07-25T22:26:52.751Z,14.00
2022-07-25T22:29:22.745Z,13.88
2022-07-25T22:31:52.932Z,11.90
2022-07-25T22:34:24.409Z,12.52
2022-07-25T22:36:54.434Z,11.98
2022-07-25T22:39:24.909Z,13.02
2022-07-25T22:41:54.827Z,11.35
2022-07-25T22:44:24.963Z,11.38
2022-07-25T22:46:54.823Z,11.95
2022-07-25T22:49:26.316Z,12.68
2022-07-25T22:51:56.256Z,12.18
2022-07-25T22:54:26.791Z,13.48
2022-07-25T22:56:56.714Z,12.82
2022-07-25T22:59:26.889Z,13.45
2022-07-25T23:01:56.849Z,12.73
2022-07-25T23:04:28.237Z,26.90
2022-07-25T23:06:59.055Z,12.25
2022-07-25T23:09:36.055Z,15.27
2022-07-25T23:12:07.511Z,12.73
2022-07-25T23:14:38.428Z,14.18
2022-07-25T23:17:21.027Z,13.02
2022-07-25T23:19:54.467Z,12.07
2022-07-25T23:22:26.783Z,17.48
2022-07-25T23:24:57.196Z,13.93
2022-07-25T23:27:27.939Z,14.93
2022-07-25T23:30:03.878Z,17.25
2022-07-25T23:32:33.921Z,14.05
2022-07-25T23:35:06.033Z,13.20
2022-07-25T23:37:35.953Z,14.40
2022-07-25T23:40:07.391Z,13.40
2022-07-25T23:42:37.219Z,14.07
2022-07-25T23:45:08.230Z,13.68
2022-07-25T23:47:40.605Z,12.88
2022-07-25T23:50:12.646Z,15.85
2022-07-25T23:52:42.515Z,16.75
2022-07-25T23:55:12.386Z,15.73
2022-07-25T23:57:42.234Z,12.23
